createdAt,value
2017-12-06T00:00:23.108Z,12.23
2017-12-06T00:02:50.761Z,13.13
2017-12-06T00:05:18.475Z,11.80
2017-12-06T00:07:46.126Z,11.90
2017-12-06T00:10:13.835Z,11.77
2017-12-06T00:12:47.162Z,11.33
2017-12-06T00:15:20.366Z,11.40
2017-12-06T00:17:48.019Z,11.13
2017-12-06T00:20:15.710Z,11.13
2017-12-06T00:22:44.154Z,12.27
2017-12-06T00:25:11.845Z,10.70
2017-12-06T00:27:40.275Z,12.20
2017-12-06T00:30:07.971Z,11.40
2017-12-06T00:32:35.635Z,11.97
2017-12-06T00:35:03.335Z,11.37
2017-12-06T00:37:30.984Z,12.20
2017-12-06T00:39:58.676Z,11.23
2017-12-06T00:42:26.369Z,10.77
2017-12-06T00:44:54.020Z,10.73
2017-12-06T00:47:21.715Z,11.30
2017-12-06T00:49:50.131Z,9.63
2017-12-06T00:52:17.819Z,10.70
2017-12-06T00:54:45.475Z,11.03
2017-12-06T00:57:13.161Z,9.63
2017-12-06T00:59:41.575Z,10.90
2017-12-06T01:02:09.278Z,10.33
2017-12-06T01:04:36.935Z,10.50
2017-12-06T01:07:04.623Z,11.00
2017-12-06T01:09:33.042Z,9.50
2017-12-06T01:12:00.729Z,10.10
2017-12-06T01:14:28.388Z,9.93
2017-12-06T01:16:56.078Z,9.50
2017-12-06T01:19:24.491Z,9.23
2017-12-06T01:21:52.179Z,10.60
2017-12-06T01:24:19.830Z,9.70
2017-12-06T01:26:47.530Z,11.17
2017-12-06T01:29:15.942Z,10.47
2017-12-06T01:31:43.630Z,11.30
2017-12-06T01:34:11.279Z,9.97
2017-12-06T01:36:39.743Z,10.07
2017-12-06T01:39:07.387Z,9.07
2017-12-06T01:41:35.033Z,9.60
2017-12-06T01:44:02.725Z,9.27
2017-12-06T01:46:30.422Z,9.33
2017-12-06T01:48:58.127Z,10.77
2017-12-06T01:51:25.808Z,9.10
2017-12-06T01:53:53.549Z,9.80
2017-12-06T01:56:21.243Z,10.17
2017-12-06T01:58:48.993Z,9.30
2017-12-06T02:01:16.672Z,10.07
2017-12-06T02:03:44.366Z,9.73
2017-12-06T02:06:12.994Z,10.23
2017-12-06T02:08:41.632Z,9.13
2017-12-06T02:11:10.076Z,9.30
2017-12-06T02:13:37.783Z,9.67
2017-12-06T02:16:05.443Z,8.87
2017-12-06T02:18:33.143Z,9.40
2017-12-06T02:21:00.847Z,10.30
2017-12-06T02:23:29.371Z,9.97
2017-12-06T02:25:57.072Z,10.37
2017-12-06T02:28:25.594Z,9.80
2017-12-06T02:30:53.272Z,10.27
2017-12-06T02:33:21.014Z,10.60
2017-12-06T02:35:48.724Z,9.33
2017-12-06T02:38:16.427Z,12.40
2017-12-06T02:40:55.943Z,10.80
2017-12-06T02:46:46.170Z,10.80
2017-12-06T02:49:13.871Z,9.60
2017-12-06T02:51:41.535Z,11.30
2017-12-06T02:54:09.274Z,10.00
2017-12-06T02:56:36.973Z,10.43
2017-12-06T02:59:05.442Z,11.30
2017-12-06T03:01:33.119Z,10.23
2017-12-06T03:04:01.615Z,10.90
2017-12-06T03:06:29.310Z,11.60
2017-12-06T03:08:57.006Z,11.73
2017-12-06T03:11:25.478Z,12.07
2017-12-06T03:13:53.139Z,11.90
2017-12-06T03:16:20.865Z,12.57
2017-12-06T03:18:48.538Z,11.33
2017-12-06T03:21:16.238Z,12.30
2017-12-06T03:23:43.899Z,10.90
2017-12-06T03:26:12.354Z,12.10
2017-12-06T03:28:40.015Z,10.90
2017-12-06T03:31:08.578Z,12.03
2017-12-06T03:33:36.179Z,11.47
2017-12-06T03:36:03.870Z,12.10
2017-12-06T03:38:31.522Z,11.10
2017-12-06T03:40:59.218Z,10.13
2017-12-06T03:43:26.879Z,11.93
2017-12-06T03:45:54.571Z,11.83
2017-12-06T03:48:22.982Z,11.80
2017-12-06T03:50:50.686Z,10.70
2017-12-06T03:53:18.338Z,12.83
2017-12-06T03:55:46.026Z,11.47
2017-12-06T03:58:14.475Z,11.20
2017-12-06T04:00:42.162Z,12.13
2017-12-06T04:03:10.586Z,12.50
2017-12-06T04:05:38.327Z,13.60
2017-12-06T04:08:05.980Z,11.17
2017-12-06T04:10:33.635Z,13.20
2017-12-06T04:13:01.334Z,12.43
2017-12-06T04:15:28.983Z,12.90
2017-12-06T04:17:56.674Z,12.20
2017-12-06T04:20:24.327Z,13.53
2017-12-06T04:22:52.019Z,13.47
2017-12-06T04:25:19.675Z,13.47
2017-12-06T04:27:48.134Z,13.27
2017-12-06T04:30:15.793Z,11.27
2017-12-06T04:32:44.271Z,11.10
2017-12-06T04:35:12.714Z,12.90
2017-12-06T04:37:40.411Z,13.00
2017-12-06T04:40:08.888Z,11.63
2017-12-06T04:42:37.407Z,12.67
2017-12-06T04:45:05.098Z,12.17
2017-12-06T04:47:33.588Z,13.47
2017-12-06T04:50:01.279Z,13.37
2017-12-06T04:52:29.739Z,13.07
2017-12-06T04:54:57.397Z,14.33
2017-12-06T04:57:25.087Z,13.70
2017-12-06T04:59:52.742Z,12.50
2017-12-06T05:02:20.435Z,13.50
2017-12-06T05:04:48.095Z,14.87
2017-12-06T05:07:15.791Z,14.20
2017-12-06T05:09:43.438Z,13.43
2017-12-06T05:12:11.178Z,13.53
2017-12-06T05:14:38.841Z,12.73
2017-12-06T05:17:06.491Z,13.97
2017-12-06T05:19:34.186Z,12.27
2017-12-06T05:22:01.849Z,13.10
2017-12-06T05:24:29.546Z,13.03
2017-12-06T05:26:57.195Z,13.30
2017-12-06T05:29:24.893Z,13.27
2017-12-06T05:31:52.546Z,13.17
2017-12-06T05:34:20.239Z,13.70
2017-12-06T05:36:47.899Z,11.83
2017-12-06T05:39:15.591Z,12.60
2017-12-06T05:41:44.009Z,13.53
2017-12-06T05:44:11.713Z,13.30
2017-12-06T05:46:40.126Z,12.43
2017-12-06T05:49:07.827Z,12.00
2017-12-06T05:51:35.487Z,12.30
2017-12-06T05:54:03.186Z,11.43
2017-12-06T05:56:30.834Z,13.33
2017-12-06T05:58:59.298Z,14.07
2017-12-06T06:01:26.962Z,10.97
2017-12-06T06:03:55.422Z,13.60
2017-12-06T06:06:23.078Z,13.97
2017-12-06T06:08:50.807Z,12.20
2017-12-06T06:11:18.454Z,12.37
2017-12-06T06:13:46.154Z,12.70
2017-12-06T06:16:13.863Z,12.40
2017-12-06T06:18:41.532Z,13.10
2017-12-06T06:21:09.220Z,13.70
2017-12-06T06:23:36.875Z,11.60
2017-12-06T06:26:04.575Z,12.57
2017-12-06T06:28:32.992Z,12.73
2017-12-06T06:31:00.682Z,12.40
2017-12-06T06:33:28.350Z,13.60
2017-12-06T06:35:56.056Z,13.23
2017-12-06T06:38:23.705Z,12.57
2017-12-06T06:40:52.179Z,12.20
2017-12-06T06:43:20.591Z,12.50
2017-12-06T06:45:48.311Z,12.77
2017-12-06T06:48:16.730Z,12.37
2017-12-06T06:50:44.426Z,11.40
2017-12-06T06:53:12.095Z,12.80
2017-12-06T06:55:39.817Z,12.60
2017-12-06T06:58:07.495Z,13.47
2017-12-06T07:00:35.191Z,13.10
2017-12-06T07:03:03.659Z,13.90
2017-12-06T07:05:32.126Z,13.13
2017-12-06T07:07:59.774Z,11.90
2017-12-06T07:10:27.582Z,11.93
2017-12-06T07:12:55.255Z,11.47
2017-12-06T07:15:22.978Z,12.60
2017-12-06T07:17:51.443Z,12.57
2017-12-06T07:20:19.153Z,12.00
2017-12-06T07:22:46.836Z,12.47
2017-12-06T07:25:14.538Z,12.27
2017-12-06T07:27:43.012Z,11.40
2017-12-06T07:30:10.707Z,13.27
2017-12-06T07:32:38.499Z,15.00
2017-12-06T07:35:06.215Z,12.73
2017-12-06T07:37:34.735Z,13.37
2017-12-06T07:40:03.203Z,13.03
2017-12-06T07:42:30.966Z,13.07
2017-12-06T07:44:58.665Z,13.80
2017-12-06T07:47:26.358Z,12.97
2017-12-06T07:49:54.043Z,13.20
2017-12-06T07:52:21.817Z,13.63
2017-12-06T07:54:49.471Z,13.47
2017-12-06T07:57:17.191Z,13.67
2017-12-06T07:59:45.607Z,13.10
2017-12-06T08:02:13.297Z,14.37
2017-12-06T08:04:40.950Z,14.10
2017-12-06T08:07:08.639Z,13.80
2017-12-06T08:09:37.056Z,13.60
2017-12-06T08:12:04.756Z,11.17
2017-12-06T08:14:32.410Z,12.70
2017-12-06T08:17:00.106Z,12.40
2017-12-06T08:19:27.836Z,13.33
2017-12-06T08:21:55.498Z,12.70
2017-12-06T08:24:23.218Z,12.60
2017-12-06T08:26:50.891Z,13.30
2017-12-06T08:29:18.569Z,13.53
2017-12-06T08:31:46.295Z,13.80
2017-12-06T08:34:13.959Z,14.03
2017-12-06T08:36:41.656Z,13.47
2017-12-06T08:39:09.323Z,13.30
2017-12-06T08:41:37.051Z,12.83
2017-12-06T08:44:04.727Z,12.73
2017-12-06T08:46:32.445Z,12.47
2017-12-06T08:49:00.159Z,12.80
2017-12-06T08:51:27.912Z,14.10
2017-12-06T08:53:55.653Z,12.50
2017-12-06T08:56:23.377Z,14.23
2017-12-06T08:58:51.035Z,13.33
2017-12-06T09:01:18.742Z,11.93
2017-12-06T09:03:46.427Z,12.87
2017-12-06T09:06:14.183Z,11.90
2017-12-06T09:08:41.846Z,12.00
2017-12-06T09:11:10.322Z,13.00
2017-12-06T09:13:38.046Z,12.93
2017-12-06T09:16:05.769Z,11.70
2017-12-06T09:18:33.455Z,10.33
2017-12-06T09:21:01.199Z,13.17
2017-12-06T09:23:28.907Z,10.20
2017-12-06T09:25:56.640Z,12.73
2017-12-06T09:28:24.424Z,12.30
2017-12-06T09:30:52.162Z,12.57
2017-12-06T09:33:19.926Z,13.17
2017-12-06T09:35:47.622Z,11.87
2017-12-06T09:38:15.330Z,11.30
2017-12-06T09:40:42.983Z,12.50
2017-12-06T09:43:10.727Z,11.60
2017-12-06T09:45:38.395Z,12.10
2017-12-06T09:48:06.099Z,11.70
2017-12-06T09:50:33.795Z,10.73
2017-12-06T09:53:02.294Z,11.90
2017-12-06T09:55:29.975Z,12.10
2017-12-06T09:57:57.683Z,13.97
2017-12-06T10:00:25.392Z,11.37
2017-12-06T10:02:53.260Z,14.10
2017-12-06T10:05:20.922Z,11.60
2017-12-06T10:07:48.618Z,12.50
2017-12-06T10:10:16.271Z,11.57
2017-12-06T10:12:43.979Z,11.80
2017-12-06T10:15:11.648Z,12.30
2017-12-06T10:17:39.384Z,13.10
2017-12-06T10:20:07.806Z,12.20
2017-12-06T10:22:35.537Z,11.53
2017-12-06T10:25:03.199Z,11.63
2017-12-06T10:27:30.875Z,12.57
2017-12-06T10:29:58.606Z,12.20
2017-12-06T10:32:27.099Z,11.70
2017-12-06T10:34:54.832Z,13.03
2017-12-06T10:37:23.399Z,11.60
2017-12-06T10:39:51.117Z,12.60
2017-12-06T10:42:18.811Z,11.70
2017-12-06T10:44:46.515Z,11.57
2017-12-06T10:47:14.192Z,11.13
2017-12-06T10:49:41.903Z,10.83
2017-12-06T10:52:09.565Z,10.10
2017-12-06T10:54:37.267Z,12.33
2017-12-06T10:57:04.948Z,11.93
2017-12-06T10:59:32.655Z,11.57
2017-12-06T11:02:01.091Z,11.70
2017-12-06T11:04:28.822Z,10.10
2017-12-06T11:06:56.515Z,10.10
2017-12-06T11:09:24.286Z,12.20
2017-12-06T11:11:51.937Z,10.70
2017-12-06T11:14:19.626Z,11.67
2017-12-06T11:16:47.275Z,11.43
2017-12-06T11:19:14.986Z,11.90
2017-12-06T11:21:42.649Z,11.13
2017-12-06T11:24:10.367Z,12.47
2017-12-06T11:26:38.031Z,12.20
2017-12-06T11:29:05.727Z,12.50
2017-12-06T11:31:33.459Z,12.30
2017-12-06T11:34:01.899Z,11.90
2017-12-06T11:36:29.606Z,12.47
2017-12-06T11:38:57.341Z,12.33
2017-12-06T11:41:25.278Z,12.70
2017-12-06T11:43:53.037Z,12.03
2017-12-06T11:46:20.744Z,12.57
2017-12-06T11:48:49.163Z,11.50
2017-12-06T11:51:17.120Z,12.80
2017-12-06T11:53:44.801Z,10.93
2017-12-06T11:56:12.499Z,12.87
2017-12-06T11:58:40.943Z,11.73
2017-12-06T12:01:08.655Z,11.03
2017-12-06T12:03:36.342Z,12.73
2017-12-06T12:06:04.056Z,11.80
2017-12-06T12:08:32.487Z,11.33
2017-12-06T12:11:00.199Z,10.60
2017-12-06T12:13:28.627Z,11.03
2017-12-06T12:15:56.376Z,12.30
2017-12-06T12:18:24.086Z,11.63
2017-12-06T12:20:51.783Z,12.17
2017-12-06T12:23:19.455Z,12.47
2017-12-06T12:25:47.184Z,11.57
2017-12-06T12:28:15.616Z,12.83
2017-12-06T12:30:43.307Z,12.33
2017-12-06T12:33:11.789Z,13.20
2017-12-06T12:35:40.216Z,13.10
2017-12-06T12:38:08.039Z,12.50
2017-12-06T12:40:36.523Z,13.33
2017-12-06T12:43:07.597Z,13.43
2017-12-06T12:45:35.346Z,12.60
2017-12-06T12:48:03.110Z,13.13
2017-12-06T12:50:30.839Z,14.40
2017-12-06T12:52:59.371Z,15.73
2017-12-06T12:55:27.092Z,13.30
2017-12-06T12:57:54.888Z,13.10
2017-12-06T13:00:22.658Z,13.33
2017-12-06T13:02:50.481Z,13.70
2017-12-06T13:05:18.242Z,13.70
2017-12-06T13:07:46.028Z,13.60
2017-12-06T13:10:13.795Z,14.60
2017-12-06T13:12:41.647Z,12.47
2017-12-06T13:15:09.406Z,12.33
2017-12-06T13:17:37.170Z,10.63
2017-12-06T13:20:04.899Z,12.90
2017-12-06T13:22:33.554Z,11.80
2017-12-06T13:25:01.303Z,12.60
2017-12-06T13:27:29.070Z,13.17
2017-12-06T13:29:56.795Z,12.90
2017-12-06T13:32:24.609Z,12.20
2017-12-06T13:34:52.351Z,13.03
2017-12-06T13:37:20.129Z,13.37
2017-12-06T13:39:47.843Z,14.47
2017-12-06T13:42:15.589Z,13.10
2017-12-06T13:44:43.370Z,13.73
2017-12-06T13:47:11.103Z,14.47
2017-12-06T13:49:39.667Z,13.33
2017-12-06T13:52:08.196Z,15.53
2017-12-06T13:54:36.019Z,13.20
2017-12-06T13:57:04.559Z,12.97
2017-12-06T13:59:32.391Z,12.60
2017-12-06T14:02:00.151Z,13.93
2017-12-06T14:04:27.868Z,14.10
2017-12-06T14:06:55.556Z,14.30
2017-12-06T14:09:23.287Z,15.10
2017-12-06T14:11:51.050Z,13.43
2017-12-06T14:14:19.589Z,15.20
2017-12-06T14:16:47.303Z,13.87
2017-12-06T14:19:15.827Z,14.17
2017-12-06T14:21:43.544Z,14.90
2017-12-06T14:24:12.112Z,14.27
2017-12-06T14:26:40.608Z,15.40
2017-12-06T14:29:09.143Z,14.70
2017-12-06T14:31:36.863Z,15.47
2017-12-06T14:34:04.647Z,27.10
2017-12-06T14:36:32.448Z,14.90
2017-12-06T14:39:00.215Z,14.40
2017-12-06T14:41:27.933Z,14.57
2017-12-06T14:43:55.743Z,15.27
2017-12-06T14:46:24.291Z,12.83
2017-12-06T14:48:52.052Z,15.47
2017-12-06T14:51:19.785Z,14.20
2017-12-06T14:53:47.626Z,14.40
2017-12-06T14:56:16.224Z,14.57
2017-12-06T14:58:43.948Z,13.10
2017-12-06T15:01:12.515Z,14.93
2017-12-06T15:03:40.308Z,14.63
2017-12-06T15:06:08.872Z,15.80
2017-12-06T15:08:37.355Z,14.37
2017-12-06T15:11:05.122Z,13.80
2017-12-06T15:13:33.740Z,13.67
2017-12-06T15:16:01.554Z,12.73
2017-12-06T15:18:30.123Z,12.87
2017-12-06T15:20:57.880Z,15.30
2017-12-06T15:23:25.629Z,13.70
2017-12-06T15:25:53.403Z,13.73
2017-12-06T15:28:21.160Z,14.80
2017-12-06T15:30:48.995Z,14.10
2017-12-06T15:33:16.727Z,13.77
2017-12-06T15:35:44.524Z,14.67
2017-12-06T15:38:12.255Z,13.80
2017-12-06T15:40:40.027Z,12.73
2017-12-06T15:43:07.768Z,13.70
2017-12-06T15:45:36.296Z,13.50
2017-12-06T15:48:04.045Z,13.57
2017-12-06T15:50:31.858Z,14.33
2017-12-06T15:53:00.355Z,13.00
2017-12-06T15:55:28.876Z,13.40
2017-12-06T15:57:56.626Z,13.80
2017-12-06T16:00:24.351Z,13.80
2017-12-06T16:02:52.846Z,14.47
2017-12-06T16:05:20.951Z,14.17
2017-12-06T16:07:49.525Z,13.77
2017-12-06T16:10:17.236Z,12.07
2017-12-06T16:12:45.751Z,15.37
2017-12-06T16:15:13.759Z,13.73
2017-12-06T16:17:41.524Z,13.70
2017-12-06T16:20:09.268Z,15.07
2017-12-06T16:22:37.158Z,13.87
2017-12-06T16:25:05.618Z,15.15
2017-12-06T16:27:33.386Z,16.33
2017-12-06T16:30:01.142Z,14.50
2017-12-06T16:32:28.933Z,14.20
2017-12-06T16:38:02.851Z,20.43
2017-12-06T16:40:31.344Z,21.13
2017-12-06T16:42:59.091Z,15.77
2017-12-06T16:45:27.602Z,13.87
2017-12-06T16:47:55.375Z,14.87
2017-12-06T16:50:23.091Z,14.93
2017-12-06T16:52:51.571Z,15.23
2017-12-06T16:55:20.059Z,13.53
2017-12-06T16:57:48.575Z,14.80
2017-12-06T17:00:16.295Z,14.50
2017-12-06T17:02:44.835Z,16.80
2017-12-06T17:05:12.600Z,14.07
2017-12-06T17:07:40.316Z,13.77
2017-12-06T17:10:08.091Z,14.60
2017-12-06T17:12:35.807Z,14.23
2017-12-06T17:15:04.359Z,15.83
2017-12-06T17:17:32.076Z,20.50
2017-12-06T17:19:59.844Z,16.60
2017-12-06T17:22:27.539Z,11.70
2017-12-06T17:24:55.304Z,13.70
2017-12-06T17:27:23.043Z,13.10
2017-12-06T17:30:02.587Z,12.17
2017-12-06T17:32:30.351Z,14.50
2017-12-06T17:34:58.123Z,13.53
2017-12-06T17:37:25.862Z,13.50
2017-12-06T17:39:53.636Z,12.10
2017-12-06T17:42:21.357Z,15.85
2017-12-06T17:44:49.129Z,14.10
2017-12-06T17:47:16.853Z,14.00
2017-12-06T17:49:44.660Z,13.47
2017-12-06T17:52:12.450Z,17.43
2017-12-06T17:54:40.342Z,12.87
2017-12-06T17:57:08.515Z,13.40
2017-12-06T17:59:36.327Z,13.63
2017-12-06T18:02:04.169Z,12.70
2017-12-06T18:04:32.027Z,14.20
2017-12-06T18:07:00.175Z,18.90
2017-12-06T18:09:28.051Z,16.00
2017-12-06T18:11:56.923Z,18.80
2017-12-06T18:14:24.993Z,15.93
2017-12-06T18:16:52.922Z,15.10
2017-12-06T18:19:21.027Z,17.27
2017-12-06T18:21:48.877Z,13.80
2017-12-06T18:24:17.966Z,15.40
2017-12-06T18:26:46.664Z,15.43
2017-12-06T18:29:14.434Z,17.70
2017-12-06T18:31:42.252Z,14.10
2017-12-06T18:34:10.259Z,15.10
2017-12-06T18:36:38.436Z,15.97
2017-12-06T18:39:06.604Z,13.60
2017-12-06T18:41:35.695Z,15.77
2017-12-06T18:44:03.479Z,17.30
2017-12-06T18:46:32.030Z,16.33
